Time;durP1;ratioP1;P1;durP2;ratioP2;P2;SDS_P1;SDS_P2;PMS_P1;PMS_P2;Temp;Humidity;BMP_temperature;BMP_pressure;BME280_temperature;BME280_humidity;BME280_pressure;Samples;Min_cycle;Max_cycle;Signal;HPM_P1;HPM_P2
2024/03/15 00:00:53;;;;;;;13.70;12.30;;;12.90;99.90;;;;;;4931211;29;20275;-76
2024/03/15 00:03:23;;;;;;;15.00;12.00;;;12.90;99.90;;;;;;4942436;28;20234;-77
2024/03/15 00:05:50;;;;;;;17.15;13.57;;;12.90;99.90;;;;;;4942888;28;20524;-78
2024/03/15 00:08:18;;;;;;;13.10;11.77;;;12.90;99.90;;;;;;4942330;28;20623;-77
2024/03/15 00:10:46;;;;;;;14.57;13.07;;;12.80;99.90;;;;;;4940311;28;20227;-77
2024/03/15 00:13:14;;;;;;;17.10;14.23;;;12.80;99.90;;;;;;4941003;28;20245;-77
2024/03/15 00:15:41;;;;;;;14.38;12.95;;;12.80;99.90;;;;;;4940273;28;20310;-77
2024/03/15 00:18:08;;;;;;;13.82;12.32;;;12.80;99.90;;;;;;4939964;28;20616;-76
2024/03/15 00:20:41;;;;;;;15.60;13.93;;;12.80;99.90;;;;;;4938941;28;20605;-76
2024/03/15 00:23:11;;;;;;;15.85;14.02;;;12.80;99.90;;;;;;4942045;28;20282;-78
2024/03/15 00:25:41;;;;;;;14.00;12.32;;;12.80;99.90;;;;;;4941426;28;20231;-78
2024/03/15 00:28:08;;;;;;;15.25;13.65;;;12.80;99.90;;;;;;4941790;28;20679;-77
2024/03/15 00:30:35;;;;;;;14.27;12.38;;;12.80;99.90;;;;;;4940722;28;20237;-77
2024/03/15 00:33:02;;;;;;;15.45;13.95;;;12.70;99.90;;;;;;4944272;28;20223;-77
2024/03/15 00:35:30;;;;;;;15.82;14.20;;;12.70;99.90;;;;;;4941393;29;20311;-77
2024/03/15 00:37:57;;;;;;;14.75;13.25;;;12.70;99.90;;;;;;4926745;29;20231;-77
2024/03/15 00:40:24;;;;;;;13.70;12.30;;;12.70;99.90;;;;;;4931573;28;20555;-77
2024/03/15 00:42:51;;;;;;;13.40;12.10;;;12.70;99.90;;;;;;4965102;28;20234;-76
2024/03/15 00:45:19;;;;;;;13.18;11.88;;;12.70;99.90;;;;;;4962109;28;20562;-78
2024/03/15 00:47:47;;;;;;;14.10;11.98;;;12.70;99.90;;;;;;4944476;28;20220;-78
2024/03/15 00:50:14;;;;;;;14.57;13.18;;;12.70;99.90;;;;;;4956823;29;20235;-78
2024/03/15 00:52:45;;;;;;;15.48;13.98;;;12.70;99.90;;;;;;4961372;28;20227;-78
2024/03/15 00:55:13;;;;;;;13.95;11.85;;;12.70;99.90;;;;;;4961274;28;20227;-78
2024/03/15 00:57:40;;;;;;;18.02;15.48;;;12.70;99.90;;;;;;4944879;28;20216;-78
2024/03/15 01:00:09;;;;;;;16.67;13.90;;;12.70;99.90;;;;;;4944933;28;20223;-78
2024/03/15 01:02:38;;;;;;;16.50;14.90;;;12.70;99.90;;;;;;4975107;28;20526;-78
2024/03/15 01:05:07;;;;;;;15.65;13.98;;;12.70;99.90;;;;;;4976128;28;20310;-78
2024/03/15 01:07:34;;;;;;;14.88;13.40;;;12.60;99.90;;;;;;4976432;28;20231;-78
2024/03/15 01:10:02;;;;;;;15.02;13.52;;;12.60;99.90;;;;;;4976349;28;20289;-79
2024/03/15 01:12:29;;;;;;;17.80;13.75;;;12.60;99.90;;;;;;4976387;28;20692;-78
2024/03/15 01:14:57;;;;;;;17.85;13.70;;;12.60;99.90;;;;;;4975771;28;20219;-78
2024/03/15 01:17:24;;;;;;;14.10;12.65;;;12.50;99.90;;;;;;4976773;28;20662;-78
2024/03/15 01:19:51;;;;;;;14.68;12.95;;;12.50;99.90;;;;;;4975981;28;20227;-77
2024/03/15 01:22:21;;;;;;;14.82;13.32;;;12.50;99.90;;;;;;4976295;28;20234;-77
2024/03/15 01:24:48;;;;;;;14.70;13.20;;;12.50;99.90;;;;;;4975379;28;20781;-77
2024/03/15 01:27:16;;;;;;;17.63;15.60;;;12.50;99.90;;;;;;4976132;28;20743;-77
2024/03/15 01:29:44;;;;;;;15.48;13.82;;;12.50;99.90;;;;;;4943961;28;20241;-78
2024/03/15 01:32:11;;;;;;;18.45;15.98;;;12.40;99.90;;;;;;4940915;29;20223;-78
2024/03/15 01:34:38;;;;;;;16.70;15.02;;;12.40;99.90;;;;;;4947418;28;20661;-78
2024/03/15 01:37:05;;;;;;;15.75;14.15;;;12.40;99.90;;;;;;4944480;28;20704;-78
2024/03/15 01:39:32;;;;;;;15.95;14.07;;;12.40;99.90;;;;;;4944340;28;20314;-78
2024/03/15 01:42:00;;;;;;;16.50;14.80;;;12.40;99.90;;;;;;4943372;28;20227;-79
2024/03/15 01:44:27;;;;;;;18.60;16.70;;;12.30;99.90;;;;;;4958967;28;20674;-78
2024/03/15 01:46:55;;;;;;;16.48;14.48;;;12.30;99.90;;;;;;4943680;28;20302;-78
2024/03/15 01:49:22;;;;;;;15.18;13.57;;;12.30;99.90;;;;;;4949557;29;20303;-78
2024/03/15 01:51:49;;;;;;;18.33;16.08;;;12.30;99.90;;;;;;4955919;29;20228;-78
2024/03/15 01:54:17;;;;;;;17.73;14.57;;;12.30;99.90;;;;;;4956427;29;20224;-78
2024/03/15 01:56:44;;;;;;;17.50;15.70;;;12.30;99.90;;;;;;4955944;29;20228;-78
2024/03/15 01:59:11;;;;;;;15.77;14.15;;;12.30;99.90;;;;;;4960209;28;20238;-78
2024/03/15 02:01:38;;;;;;;17.08;15.32;;;12.30;99.90;;;;;;4975007;28;20227;-77
2024/03/15 02:04:06;;;;;;;19.98;16.10;;;12.30;99.90;;;;;;4975212;28;20246;-77
2024/03/15 02:06:34;;;;;;;15.95;14.27;;;12.30;99.90;;;;;;4975883;28;20586;-77
2024/03/15 02:09:02;;;;;;;16.98;14.80;;;12.30;99.90;;;;;;4975421;28;20314;-78
2024/03/15 02:11:30;;;;;;;18.65;15.57;;;12.30;99.90;;;;;;4975342;28;20241;-78
2024/03/15 02:13:57;;;;;;;17.25;15.45;;;12.30;99.90;;;;;;4974871;28;20227;-77
2024/03/15 02:16:24;;;;;;;17.67;15.25;;;12.30;99.90;;;;;;4975034;28;20227;-77
2024/03/15 02:18:52;;;;;;;15.45;13.85;;;12.20;99.90;;;;;;4973953;28;20241;-76
2024/03/15 02:21:20;;;;;;;16.42;14.73;;;12.20;99.90;;;;;;4974641;28;20231;-76
2024/03/15 02:23:47;;;;;;;16.40;14.70;;;12.20;99.90;;;;;;4941718;28;20227;-77
2024/03/15 02:26:14;;;;;;;18.48;15.32;;;12.20;99.90;;;;;;4942462;28;20223;-77
2024/03/15 02:28:41;;;;;;;17.38;15.57;;;12.10;99.90;;;;;;4942725;28;20228;-77
2024/03/15 02:31:09;;;;;;;17.20;15.27;;;12.10;99.90;;;;;;4943148;28;20573;-76
2024/03/15 02:33:36;;;;;;;23.60;20.00;;;12.10;99.90;;;;;;4941968;28;20681;-76
2024/03/15 02:36:04;;;;;;;19.35;17.35;;;12.10;99.90;;;;;;4941748;28;20227;-77
2024/03/15 02:38:31;;;;;;;18.30;16.25;;;12.10;99.90;;;;;;4958744;28;20227;-77
2024/03/15 02:40:58;;;;;;;16.20;14.70;;;12.10;99.90;;;;;;4958915;28;20658;-77
2024/03/15 02:43:25;;;;;;;20.95;16.27;;;12.10;99.90;;;;;;4945242;28;20310;-78
2024/03/15 02:45:55;;;;;;;16.55;14.70;;;12.10;99.90;;;;;;4958142;28;20235;-76
2024/03/15 02:48:22;;;;;;;15.95;13.63;;;12.10;99.90;;;;;;4957068;28;20227;-76
2024/03/15 02:50:50;;;;;;;19.08;17.08;;;12.10;99.90;;;;;;4940395;28;20228;-77
2024/03/15 02:53:18;;;;;;;17.90;15.65;;;12.10;99.90;;;;;;4942207;28;20281;-76
2024/03/15 02:55:46;;;;;;;17.85;15.98;;;12.10;99.90;;;;;;4941769;28;20223;-77
2024/03/15 02:58:13;;;;;;;17.52;15.80;;;12.10;99.90;;;;;;4942263;28;20234;-76
2024/03/15 03:00:40;;;;;;;16.88;15.07;;;12.10;99.90;;;;;;4941316;28;20215;-76
2024/03/15 03:03:10;;;;;;;21.55;18.30;;;12.10;99.90;;;;;;4936875;28;20552;-77
2024/03/15 03:05:37;;;;;;;17.15;15.45;;;12.00;99.90;;;;;;4954198;28;20228;-76
2024/03/15 03:08:05;;;;;;;26.58;22.00;;;12.00;99.90;;;;;;4953648;28;20243;-77
2024/03/15 03:10:32;;;;;;;18.27;16.35;;;12.00;99.90;;;;;;4954511;28;20291;-76
2024/03/15 03:13:00;;;;;;;18.48;16.00;;;12.00;99.90;;;;;;4954933;28;20239;-78
2024/03/15 03:15:30;;;;;;;19.63;17.65;;;12.00;99.90;;;;;;4959073;28;20238;-76
2024/03/15 03:17:58;;;;;;;19.58;16.75;;;11.90;99.90;;;;;;4953966;28;20236;-77
2024/03/15 03:20:32;;;;;;;19.23;16.83;;;11.90;99.90;;;;;;4953160;28;20283;-77
2024/03/15 03:23:00;;;;;;;20.67;17.42;;;11.90;99.90;;;;;;4953562;28;20255;-76
2024/03/15 03:25:27;;;;;;;19.25;17.25;;;11.90;99.90;;;;;;4954133;28;20224;-77
2024/03/15 03:27:54;;;;;;;20.35;18.08;;;11.90;99.90;;;;;;4951074;28;20238;-77
2024/03/15 03:30:21;;;;;;;20.70;18.42;;;11.90;99.90;;;;;;4936102;29;20242;-77
2024/03/15 03:32:49;;;;;;;19.95;17.23;;;11.90;99.90;;;;;;4935726;28;20236;-76
2024/03/15 03:35:16;;;;;;;21.45;19.00;;;11.90;99.90;;;;;;4936163;29;20231;-76
2024/03/15 03:37:44;;;;;;;26.27;20.30;;;11.90;99.90;;;;;;4952189;29;20216;-75
2024/03/15 03:40:15;;;;;;;19.90;17.40;;;11.90;99.90;;;;;;4951768;28;20690;-76
2024/03/15 03:42:46;;;;;;;18.83;16.83;;;11.90;99.90;;;;;;4937231;28;20355;-75
2024/03/15 03:45:17;;;;;;;20.20;18.00;;;11.90;99.90;;;;;;4938244;28;20227;-75
2024/03/15 03:47:44;;;;;;;19.70;16.80;;;11.90;99.90;;;;;;4938462;29;20262;-75
2024/03/15 03:50:12;;;;;;;20.50;18.35;;;11.90;99.90;;;;;;4933868;28;20228;-75
2024/03/15 03:52:40;;;;;;;21.17;18.90;;;11.90;99.90;;;;;;4934228;29;20224;-76
2024/03/15 03:55:08;;;;;;;20.33;17.75;;;11.90;99.90;;;;;;4947476;28;20224;-76
2024/03/15 03:57:35;;;;;;;21.98;18.90;;;11.90;99.90;;;;;;4953511;28;20600;-75
2024/03/15 04:00:14;;;;;;;20.15;17.60;;;11.80;99.90;;;;;;4953107;28;20313;-76
2024/03/15 04:02:44;;;;;;;21.95;19.08;;;11.80;99.90;;;;;;4967502;28;20577;-75
2024/03/15 04:05:13;;;;;;;21.27;18.65;;;11.80;99.90;;;;;;4956490;28;20536;-77
2024/03/15 04:07:41;;;;;;;21.48;19.13;;;11.80;99.90;;;;;;4956629;28;20277;-76
2024/03/15 04:10:09;;;;;;;21.60;19.23;;;11.80;99.90;;;;;;4956035;28;20269;-76
2024/03/15 04:12:36;;;;;;;21.30;18.85;;;11.80;99.90;;;;;;4956655;28;20227;-76
2024/03/15 04:15:04;;;;;;;20.50;18.08;;;11.80;99.90;;;;;;4954684;28;20277;-75
2024/03/15 04:17:32;;;;;;;21.33;18.70;;;11.80;99.90;;;;;;4956443;28;20223;-75
2024/03/15 04:19:59;;;;;;;22.15;19.95;;;11.80;99.90;;;;;;4955720;28;20227;-76
2024/03/15 04:22:27;;;;;;;25.40;21.00;;;11.80;99.90;;;;;;4955770;28;20306;-75
2024/03/15 04:24:54;;;;;;;26.60;21.85;;;11.80;99.90;;;;;;4957686;28;20258;-76
2024/03/15 04:27:21;;;;;;;27.42;22.42;;;11.80;99.90;;;;;;4956341;28;20239;-77
2024/03/15 04:29:48;;;;;;;21.35;19.15;;;11.80;99.90;;;;;;4940749;28;20234;-76
2024/03/15 04:32:17;;;;;;;23.33;19.60;;;11.70;99.90;;;;;;4939271;28;20227;-76
2024/03/15 04:34:47;;;;;;;23.55;21.05;;;11.70;99.90;;;;;;4941274;28;20223;-76
2024/03/15 04:37:15;;;;;;;26.13;21.38;;;11.70;99.90;;;;;;4940311;28;20235;-76
2024/03/15 04:39:42;;;;;;;23.70;20.25;;;11.70;99.90;;;;;;4940086;28;20538;-75
2024/03/15 04:42:12;;;;;;;21.50;19.25;;;11.70;99.90;;;;;;4940099;28;20312;-75
2024/03/15 04:44:39;;;;;;;21.52;19.23;;;11.70;99.90;;;;;;4941683;28;20314;-75
2024/03/15 04:47:07;;;;;;;21.15;18.95;;;11.70;99.90;;;;;;4940232;28;20719;-75
2024/03/15 04:49:34;;;;;;;24.08;21.02;;;11.70;99.90;;;;;;4940760;28;20712;-75
2024/03/15 04:52:02;;;;;;;22.30;19.98;;;11.70;99.90;;;;;;4939881;28;20250;-76
2024/03/15 04:54:30;;;;;;;25.33;21.52;;;11.70;99.90;;;;;;4940748;28;20309;-75
2024/03/15 04:56:59;;;;;;;20.92;18.70;;;11.70;99.90;;;;;;4940724;28;20231;-76
2024/03/15 04:59:26;;;;;;;21.23;19.17;;;11.60;99.90;;;;;;4932593;28;20238;-75
2024/03/15 05:01:53;;;;;;;25.85;23.05;;;11.70;99.90;;;;;;4940728;28;20228;-75
2024/03/15 05:04:20;;;;;;;24.75;20.60;;;11.60;99.90;;;;;;4936350;28;20224;-75
2024/03/15 05:06:51;;;;;;;24.38;20.15;;;11.60;99.90;;;;;;4937662;29;20231;-76
2024/03/15 05:09:18;;;;;;;23.13;19.23;;;11.60;99.90;;;;;;4937094;28;20677;-76
2024/03/15 05:11:45;;;;;;;22.95;20.45;;;11.60;99.90;;;;;;4937319;29;20239;-76
2024/03/15 05:14:18;;;;;;;21.45;19.23;;;11.60;99.90;;;;;;4937255;28;20255;-76
2024/03/15 05:16:54;;;;;;;24.92;20.38;;;11.60;99.90;;;;;;4930855;28;20243;-76
2024/03/15 05:19:21;;;;;;;22.15;19.33;;;11.60;99.90;;;;;;4939597;28;20282;-76
2024/03/15 05:21:49;;;;;;;21.90;18.08;;;11.60;99.90;;;;;;4940613;29;20741;-76
2024/03/15 05:24:16;;;;;;;22.45;19.90;;;11.70;99.90;;;;;;4940307;28;20224;-76
2024/03/15 05:26:43;;;;;;;27.08;21.48;;;11.70;99.90;;;;;;4940662;29;20536;-76
2024/03/15 05:29:10;;;;;;;21.20;19.02;;;11.70;99.90;;;;;;4939883;28;20224;-76
2024/03/15 05:31:37;;;;;;;21.98;18.83;;;11.70;99.90;;;;;;4940323;29;20227;-76
2024/03/15 05:34:07;;;;;;;22.23;19.83;;;11.60;99.90;;;;;;4939949;28;20259;-77
2024/03/15 05:36:35;;;;;;;26.98;20.48;;;11.60;99.90;;;;;;4940697;29;20230;-77
2024/03/15 05:39:03;;;;;;;21.75;18.63;;;11.70;99.90;;;;;;4940324;29;20646;-77
2024/03/15 05:41:30;;;;;;;22.02;18.38;;;11.70;99.90;;;;;;4939879;28;20275;-77
2024/03/15 05:43:57;;;;;;;20.70;18.55;;;11.70;99.90;;;;;;4940430;29;20577;-77
2024/03/15 05:46:24;;;;;;;21.15;18.67;;;11.70;99.90;;;;;;4938771;28;20562;-77
2024/03/15 05:48:54;;;;;;;25.05;20.67;;;11.60;99.90;;;;;;4933139;28;20231;-76
2024/03/15 05:51:30;;;;;;;21.77;19.20;;;11.60;99.90;;;;;;4928875;29;20239;-77
2024/03/15 05:53:58;;;;;;;20.58;18.38;;;11.60;99.90;;;;;;4940627;28;20244;-77
2024/03/15 05:56:25;;;;;;;21.75;18.83;;;11.60;99.90;;;;;;4933599;28;20579;-76
2024/03/15 05:58:52;;;;;;;19.80;17.70;;;11.70;99.90;;;;;;4940020;29;20235;-76
2024/03/15 06:01:20;;;;;;;27.65;22.52;;;11.70;99.90;;;;;;4938825;28;20224;-77
2024/03/15 06:03:47;;;;;;;20.25;18.05;;;11.70;99.90;;;;;;4939387;29;20224;-75
2024/03/15 06:06:14;;;;;;;21.80;18.63;;;11.70;99.90;;;;;;4939617;28;20675;-76
2024/03/15 06:08:42;;;;;;;23.17;18.40;;;11.70;99.90;;;;;;4939782;29;20737;-76
2024/03/15 06:11:11;;;;;;;21.02;18.70;;;11.70;99.90;;;;;;4938629;28;20283;-76
2024/03/15 06:13:38;;;;;;;25.17;19.40;;;11.70;99.90;;;;;;4939680;29;20291;-77
2024/03/15 06:16:10;;;;;;;23.98;20.35;;;11.70;99.90;;;;;;4938439;28;20224;-76
2024/03/15 06:18:39;;;;;;;19.30;16.35;;;11.70;99.90;;;;;;4934298;28;20228;-76
2024/03/15 06:21:07;;;;;;;19.92;17.80;;;11.80;99.90;;;;;;4932841;28;20227;-76
2024/03/15 06:23:34;;;;;;;20.80;17.48;;;11.80;99.90;;;;;;4945707;28;20319;-76
2024/03/15 06:26:02;;;;;;;20.83;17.73;;;11.80;99.90;;;;;;4939474;29;20227;-77
2024/03/15 06:28:37;;;;;;;23.95;18.85;;;11.90;99.90;;;;;;4938407;28;20224;-76
2024/03/15 06:31:04;;;;;;;19.10;16.90;;;11.90;99.90;;;;;;4934156;28;20305;-76
2024/03/15 06:33:33;;;;;;;20.13;17.13;;;11.90;99.90;;;;;;4938494;28;20240;-77
2024/03/15 06:36:03;;;;;;;18.65;16.75;;;12.00;99.90;;;;;;4931836;29;20220;-76
2024/03/15 06:38:40;;;;;;;18.55;15.70;;;12.00;99.90;;;;;;4939172;28;20308;-76
2024/03/15 06:41:14;;;;;;;17.55;15.63;;;12.10;99.90;;;;;;4940828;29;20897;-76
2024/03/15 06:43:45;;;;;;;20.40;16.63;;;12.20;99.90;;;;;;4932354;28;20324;-76
2024/03/15 06:46:23;;;;;;;19.50;17.35;;;12.20;99.90;;;;;;4939540;29;20249;-76
2024/03/15 06:48:57;;;;;;;22.02;17.60;;;12.20;99.90;;;;;;4940027;28;20265;-77
2024/03/15 06:54:12;;;;;;;19.38;16.08;;;12.40;99.90;;;;;;4941310;29;20234;-77
2024/03/15 06:56:41;;;;;;;17.90;15.98;;;12.40;99.90;;;;;;4938925;28;20216;-75
2024/03/15 06:59:09;;;;;;;19.25;16.40;;;12.50;99.90;;;;;;4938566;29;20224;-76
2024/03/15 07:01:42;;;;;;;19.08;16.00;;;12.50;99.90;;;;;;4937808;28;20228;-76
2024/03/15 07:04:09;;;;;;;18.73;16.27;;;12.50;99.90;;;;;;4939091;29;20314;-76
2024/03/15 07:06:36;;;;;;;17.23;15.43;;;12.60;99.90;;;;;;4937526;28;20234;-75
2024/03/15 07:09:05;;;;;;;17.70;15.93;;;12.70;99.90;;;;;;4938560;29;20228;-77
2024/03/15 07:11:33;;;;;;;17.52;15.75;;;12.70;99.90;;;;;;4938021;28;20232;-78
2024/03/15 07:14:02;;;;;;;17.92;15.98;;;12.70;99.90;;;;;;4938379;29;20227;-77
2024/03/15 07:16:30;;;;;;;21.60;14.77;;;12.80;99.90;;;;;;4938233;28;20282;-77
2024/03/15 07:18:59;;;;;;;15.60;13.93;;;12.90;99.90;;;;;;4938559;29;20228;-77
2024/03/15 07:21:26;;;;;;;18.50;15.77;;;12.90;99.90;;;;;;4938402;28;20232;-77
2024/03/15 07:23:53;;;;;;;20.08;14.70;;;13.00;99.90;;;;;;4938413;29;20621;-76
2024/03/15 07:26:22;;;;;;;16.42;14.68;;;13.00;99.90;;;;;;4937234;28;20235;-76
2024/03/15 07:28:49;;;;;;;17.40;14.77;;;13.10;99.90;;;;;;4938271;29;20239;-76
2024/03/15 07:31:16;;;;;;;19.30;17.20;;;13.20;99.90;;;;;;4937356;29;20228;-76
2024/03/15 07:33:43;;;;;;;19.13;15.40;;;13.20;99.90;;;;;;4937714;28;20491;-76
2024/03/15 07:36:13;;;;;;;19.50;17.43;;;13.30;99.90;;;;;;4937441;29;20803;-76
2024/03/15 07:38:41;;;;;;;19.25;15.70;;;13.30;99.90;;;;;;4937801;28;20542;-76
2024/03/15 07:41:10;;;;;;;18.40;14.40;;;13.30;99.90;;;;;;4937122;29;20365;-75
2024/03/15 07:43:37;;;;;;;21.17;17.10;;;13.40;99.90;;;;;;4936930;28;20240;-77
2024/03/15 07:46:15;;;;;;;16.58;14.63;;;13.40;99.90;;;;;;4937708;29;20969;-77
2024/03/15 07:48:42;;;;;;;20.83;17.00;;;13.50;99.90;;;;;;4937740;28;20767;-77
2024/03/15 07:51:09;;;;;;;18.50;16.30;;;13.50;99.90;;;;;;4938321;29;20472;-78
2024/03/15 07:53:37;;;;;;;18.03;14.57;;;13.50;99.90;;;;;;4937724;28;20480;-77
2024/03/15 07:56:09;;;;;;;16.90;14.60;;;13.60;99.90;;;;;;4941695;29;20448;-77
2024/03/15 07:58:36;;;;;;;19.07;16.47;;;13.60;99.90;;;;;;4938617;28;20496;-77
2024/03/15 08:01:07;;;;;;;15.43;13.70;;;13.60;99.90;;;;;;4932028;28;20535;-78
2024/03/15 08:03:35;;;;;;;17.30;15.40;;;13.70;99.90;;;;;;4938271;29;20480;-76
2024/03/15 08:06:05;;;;;;;19.87;13.87;;;13.70;99.90;;;;;;4935698;28;20318;-77
2024/03/15 08:08:32;;;;;;;17.83;16.02;;;13.80;99.90;;;;;;4937717;29;20475;-76
2024/03/15 08:11:01;;;;;;;19.93;16.83;;;13.80;99.90;;;;;;4937159;28;20227;-76
2024/03/15 08:13:31;;;;;;;18.00;15.80;;;13.90;99.90;;;;;;4937109;29;20486;-76
2024/03/15 08:16:08;;;;;;;17.57;15.57;;;13.80;99.90;;;;;;4937346;28;20470;-75
2024/03/15 08:18:35;;;;;;;17.03;15.20;;;13.80;99.90;;;;;;4938262;29;20463;-76
2024/03/15 08:21:03;;;;;;;14.47;13.07;;;13.90;99.90;;;;;;4936965;28;20474;-76
2024/03/15 08:23:30;;;;;;;14.57;12.93;;;13.90;99.90;;;;;;4937704;29;20464;-75
2024/03/15 08:25:58;;;;;;;14.20;12.80;;;14.00;99.90;;;;;;4936643;28;20472;-75
2024/03/15 08:28:25;;;;;;;17.00;14.53;;;14.10;99.90;;;;;;4937260;29;20468;-76
2024/03/15 08:30:52;;;;;;;16.70;14.97;;;14.20;99.90;;;;;;4936526;28;20566;-76
2024/03/15 08:33:20;;;;;;;15.10;13.40;;;14.30;99.90;;;;;;4937211;29;20491;-77
2024/03/15 08:35:47;;;;;;;15.47;13.87;;;14.30;99.90;;;;;;4936213;28;20952;-77
2024/03/15 08:38:15;;;;;;;14.00;12.50;;;14.40;99.90;;;;;;4937417;29;20479;-77
2024/03/15 08:40:44;;;;;;;14.83;12.40;;;14.50;99.90;;;;;;4928679;29;20459;-77
2024/03/15 08:43:11;;;;;;;15.00;13.37;;;14.60;99.90;;;;;;4936761;28;20467;-77
2024/03/15 08:45:38;;;;;;;14.30;12.80;;;14.60;99.90;;;;;;4937413;29;20969;-77
2024/03/15 08:48:07;;;;;;;13.60;12.20;;;14.70;99.90;;;;;;4936515;28;20499;-77
2024/03/15 08:50:35;;;;;;;15.47;13.97;;;14.80;99.90;;;;;;4937406;29;20460;-77
2024/03/15 08:53:07;;;;;;;12.43;11.13;;;14.90;99.90;;;;;;4939229;28;20480;-77
2024/03/15 08:55:35;;;;;;;12.90;11.63;;;14.90;99.90;;;;;;4941890;29;20460;-77
2024/03/15 08:58:05;;;;;;;15.77;12.97;;;15.00;99.90;;;;;;4939806;28;20474;-77
2024/03/15 09:00:32;;;;;;;16.00;14.20;;;15.00;99.90;;;;;;4940909;29;20495;-77
2024/03/15 09:02:59;;;;;;;13.47;12.17;;;15.00;99.90;;;;;;4942344;28;20475;-77
2024/03/15 09:05:27;;;;;;;12.27;10.97;;;15.10;99.90;;;;;;4944325;28;20463;-77
2024/03/15 09:07:54;;;;;;;13.53;12.13;;;15.10;99.90;;;;;;4943426;28;20466;-77
2024/03/15 09:10:23;;;;;;;16.30;13.00;;;15.20;99.90;;;;;;4944390;28;20511;-78
2024/03/15 09:12:50;;;;;;;13.73;12.20;;;15.20;99.90;;;;;;4943789;28;20471;-76
2024/03/15 09:15:22;;;;;;;12.30;11.10;;;15.30;99.90;;;;;;4943580;28;20455;-76
2024/03/15 09:17:52;;;;;;;14.57;12.77;;;15.30;99.90;;;;;;4945999;28;20474;-76
2024/03/15 09:20:32;;;;;;;14.47;12.50;;;15.40;99.90;;;;;;4930219;28;20843;-76
2024/03/15 09:23:01;;;;;;;13.10;11.70;;;15.40;99.90;;;;;;4957794;28;20872;-76
2024/03/15 09:25:30;;;;;;;13.73;12.30;;;15.50;99.90;;;;;;4944361;28;20458;-76
2024/03/15 09:27:59;;;;;;;13.17;11.77;;;15.50;99.90;;;;;;4943419;28;20466;-76
2024/03/15 09:30:36;;;;;;;15.90;12.90;;;15.60;99.90;;;;;;4934860;28;20466;-75
2024/03/15 09:33:08;;;;;;;14.80;13.27;;;15.70;99.90;;;;;;4945321;28;20474;-76
2024/03/15 09:35:40;;;;;;;14.03;12.37;;;15.70;99.90;;;;;;4944867;28;20469;-76
2024/03/15 09:38:07;;;;;;;12.53;11.20;;;15.80;99.90;;;;;;4943681;28;20960;-76
2024/03/15 09:40:37;;;;;;;13.83;12.20;;;15.90;99.90;;;;;;4943590;28;20960;-76
2024/03/15 09:43:06;;;;;;;12.77;11.40;;;15.90;99.90;;;;;;4933935;28;20474;-76
2024/03/15 09:45:35;;;;;;;12.17;10.93;;;15.90;99.90;;;;;;4943528;28;20467;-77
2024/03/15 09:48:03;;;;;;;11.83;10.60;;;15.90;99.90;;;;;;4943970;28;20474;-77
2024/03/15 09:50:31;;;;;;;12.30;10.73;;;16.00;99.90;;;;;;4942590;28;20490;-76
2024/03/15 09:52:59;;;;;;;14.20;10.50;;;16.00;99.90;;;;;;4943300;28;21024;-78
2024/03/15 09:55:27;;;;;;;12.70;11.40;;;16.10;99.90;;;;;;4942453;28;20471;-77
2024/03/15 09:57:54;;;;;;;11.87;10.67;;;16.00;99.90;;;;;;4943061;28;20501;-77
2024/03/15 10:00:22;;;;;;;14.00;10.70;;;16.10;99.90;;;;;;4942175;28;20463;-77
2024/03/15 10:02:49;;;;;;;11.80;10.13;;;16.10;99.90;;;;;;4942944;28;20542;-77
2024/03/15 10:05:16;;;;;;;11.90;10.70;;;16.20;99.90;;;;;;4941646;28;20486;-77
2024/03/15 10:07:44;;;;;;;12.70;11.50;;;16.20;99.90;;;;;;4943270;28;20533;-77
2024/03/15 10:10:11;;;;;;;11.03;10.03;;;16.20;99.90;;;;;;4942449;28;20463;-77
2024/03/15 10:12:39;;;;;;;13.03;11.77;;;16.30;99.90;;;;;;4942460;28;20478;-77
2024/03/15 10:15:11;;;;;;;11.73;10.43;;;16.30;99.90;;;;;;4943225;28;20509;-77
2024/03/15 10:17:40;;;;;;;12.20;10.90;;;16.40;99.90;;;;;;4942959;28;20487;-77
2024/03/15 10:20:10;;;;;;;11.33;10.23;;;16.40;99.90;;;;;;4942908;28;20466;-77
2024/03/15 10:22:38;;;;;;;12.40;11.10;;;16.50;99.90;;;;;;4933648;28;20475;-77
2024/03/15 10:25:07;;;;;;;12.63;11.33;;;16.50;99.90;;;;;;4944445;28;20956;-77
2024/03/15 10:27:36;;;;;;;12.80;11.50;;;16.60;99.90;;;;;;4943045;28;20886;-78
2024/03/15 10:30:05;;;;;;;14.30;12.30;;;16.60;99.90;;;;;;4942554;28;20458;-77
2024/03/15 10:32:32;;;;;;;11.10;9.27;;;16.70;99.90;;;;;;4941671;28;20479;-77
2024/03/15 10:34:59;;;;;;;11.70;10.40;;;16.70;99.90;;;;;;4942626;28;20545;-76
2024/03/15 10:37:26;;;;;;;13.57;11.23;;;16.80;99.90;;;;;;4941248;28;20482;-76
2024/03/15 10:39:54;;;;;;;10.97;9.30;;;16.90;99.90;;;;;;4942366;28;20459;-76
2024/03/15 10:42:23;;;;;;;13.23;11.10;;;16.90;99.90;;;;;;4942288;28;20481;-76
2024/03/15 10:44:50;;;;;;;14.07;11.77;;;17.00;99.90;;;;;;4942440;28;20529;-75
2024/03/15 10:47:17;;;;;;;11.50;10.40;;;17.00;99.90;;;;;;4942353;28;20490;-76
2024/03/15 10:49:45;;;;;;;11.00;9.90;;;17.00;99.90;;;;;;4941020;28;20473;-76
2024/03/15 10:52:12;;;;;;;15.47;10.70;;;17.10;99.90;;;;;;4941304;28;20471;-77
2024/03/15 10:54:39;;;;;;;11.27;10.17;;;17.00;99.90;;;;;;4940922;28;20545;-77
2024/03/15 10:57:08;;;;;;;11.13;10.03;;;17.00;99.90;;;;;;4939924;28;20463;-77
2024/03/15 10:59:36;;;;;;;10.47;9.43;;;17.10;99.90;;;;;;4941413;28;20471;-77
2024/03/15 11:02:03;;;;;;;10.03;8.80;;;17.10;99.90;;;;;;4942263;28;20463;-77
2024/03/15 11:04:31;;;;;;;12.30;10.70;;;17.20;99.90;;;;;;4937204;28;20559;-77
2024/03/15 11:06:58;;;;;;;10.60;9.50;;;17.10;99.90;;;;;;4938746;29;20474;-76
2024/03/15 11:09:27;;;;;;;11.17;9.97;;;17.10;99.90;;;;;;4938470;29;20464;-76
2024/03/15 11:12:01;;;;;;;11.90;10.77;;;17.20;99.90;;;;;;4938286;28;20472;-76
2024/03/15 11:14:34;;;;;;;10.67;9.63;;;17.20;99.90;;;;;;4938522;28;20483;-77
2024/03/15 11:17:02;;;;;;;10.43;9.43;;;17.20;99.90;;;;;;4938150;28;20471;-77
2024/03/15 11:19:30;;;;;;;10.50;9.50;;;17.20;99.90;;;;;;4938177;29;20467;-77
2024/03/15 11:22:07;;;;;;;10.70;9.70;;;17.30;99.90;;;;;;4936077;28;20433;-76
2024/03/15 11:24:42;;;;;;;10.63;8.90;;;17.30;99.90;;;;;;4938824;29;20877;-76
2024/03/15 11:27:13;;;;;;;10.03;9.13;;;17.30;99.90;;;;;;4937725;28;20463;-78
2024/03/15 11:29:41;;;;;;;10.50;9.50;;;17.40;99.90;;;;;;4938598;29;20547;-77
2024/03/15 11:32:11;;;;;;;11.47;9.83;;;17.50;99.90;;;;;;4937884;28;20511;-77
2024/03/15 11:34:39;;;;;;;8.87;8.03;;;17.40;99.90;;;;;;4938274;29;20483;-77
2024/03/15 11:37:11;;;;;;;8.30;7.50;;;17.40;99.90;;;;;;4937329;28;20838;-77
2024/03/15 11:39:38;;;;;;;11.83;10.50;;;17.50;99.90;;;;;;4938480;29;20474;-76
2024/03/15 11:42:07;;;;;;;12.33;10.93;;;17.60;99.90;;;;;;4937627;28;20467;-77
2024/03/15 11:44:35;;;;;;;15.00;12.10;;;17.50;99.90;;;;;;4937622;29;20996;-76
2024/03/15 11:47:02;;;;;;;14.17;11.90;;;17.60;99.90;;;;;;4929336;28;20495;-77
2024/03/15 11:49:30;;;;;;;14.57;12.63;;;17.60;99.90;;;;;;4931208;28;20529;-76
2024/03/15 11:51:58;;;;;;;11.43;10.13;;;17.70;99.90;;;;;;4936724;28;20472;-76
2024/03/15 11:54:25;;;;;;;9.30;8.40;;;17.70;99.90;;;;;;4937757;29;20472;-76
2024/03/15 11:56:57;;;;;;;9.80;8.77;;;17.80;99.90;;;;;;4937912;29;20464;-77
2024/03/15 11:59:31;;;;;;;8.47;7.60;;;17.80;99.90;;;;;;4937640;28;20551;-77
2024/03/15 12:01:59;;;;;;;9.10;8.20;;;17.80;99.90;;;;;;4936594;29;20470;-77
2024/03/15 12:04:26;;;;;;;9.10;8.10;;;17.90;99.90;;;;;;4939461;28;20467;-77
2024/03/15 12:06:54;;;;;;;9.90;8.20;;;17.90;99.90;;;;;;4940865;28;20470;-77
2024/03/15 12:09:21;;;;;;;9.63;8.70;;;18.00;99.90;;;;;;4940321;28;20467;-75
2024/03/15 12:11:49;;;;;;;9.60;8.60;;;18.00;99.90;;;;;;4940963;28;20467;-75
2024/03/15 12:14:16;;;;;;;8.40;7.60;;;18.00;99.90;;;;;;4939770;28;20856;-75
2024/03/15 12:16:44;;;;;;;9.77;8.80;;;18.10;99.90;;;;;;4940559;28;21008;-76
2024/03/15 12:19:14;;;;;;;8.70;7.40;;;18.10;99.90;;;;;;4940591;28;20813;-77
2024/03/15 12:21:42;;;;;;;9.43;8.53;;;18.20;99.90;;;;;;4940709;28;20526;-77
2024/03/15 12:24:09;;;;;;;10.90;9.10;;;18.20;99.90;;;;;;4940083;28;20498;-77
2024/03/15 12:26:36;;;;;;;13.57;11.50;;;18.20;99.90;;;;;;4940461;28;20450;-77
2024/03/15 12:29:03;;;;;;;12.70;11.40;;;18.30;99.90;;;;;;4940325;28;20533;-77
2024/03/15 12:31:30;;;;;;;9.50;8.50;;;18.30;99.90;;;;;;4939699;28;20473;-77
2024/03/15 12:33:57;;;;;;;10.60;8.30;;;18.30;99.90;;;;;;4940393;28;20566;-77
2024/03/15 12:36:26;;;;;;;7.97;7.27;;;18.40;99.90;;;;;;4939645;28;20458;-77